Portada
METAR-TAF:

METAR-TAF

Aeroports :

Tanna, Vanuatu

latitud: 19-27-18S, longitud: 169-13-26E, altitud: 6 m

Observació

L'informe es va fer fa 1 hora i 25 minuts, a les 06:00 UTC
Vent 2 kt amb direcció variable
Temperatura 26°C
Humitat 89%
Pressió 1006 hPa
Visibilitat 10 km o més
Escasses núvols a una alçada de 1800 ft
Núvols disperses a una alçada de 2000 ft
Cel cobert a una alçada de 11000 ft
xàfecs de pluja

METAR: NVVW 310600Z VRB02KT 9999 -SHRA FEW018 SCT020 OVC110 26/24 Q1006

Hora: 18:25 (07:25 UTC)

Pronòstic

L'informe es va fer fa 2 hores i 25 minuts, a les 05:00 UTC
Pronòstic vàlid del 31 a les 06 UTC al 01 a les 06 UTC
Vent 4 kt amb direcció variable
Visibilitat: 8000 m
Cel ennuvolat a una alçada de 2000 ft
Escasses núvols a una alçada de 800 ft
Cel ennuvolat a una alçada de 1600 ft
Escasses núvols a una alçada de 2000 ft, Cumulonimbus.
tempesta, pluja

TAF: NVVW 310500Z 3106/0106 VRB04KT 9999 BKN020 INTER 3106/3112 8000 TSRA FEW008 BKN016 FEW020CB

Observacions i pronòstics meteorològics de més de 4000 aeroports (METAR i TAF).

Les estacions disponibles són els punts grocs i vermells al mapa.

Posi el ratolí al punt desitjat per veure el nom de l'estació.

Feu clic per veure les observacions i els pronòstics meteorològics.

Per canviar el mapa: feu clic els botons verds amb una creu de color negre per apropar; al botó verd amb un guió per allunyar la imatge; o en les fletxes verdes per a mapes adjacents.


METAR-TAF: